Time;durP1;ratioP1;P1;durP2;ratioP2;P2;SDS_P1;SDS_P2;PMS_P1;PMS_P2;Temp;Humidity;BMP_temperature;BMP_pressure;BME280_temperature;BME280_humidity;BME280_pressure;Samples;Min_cycle;Max_cycle;Signal;HPM_P1;HPM_P2
2023/01/01 00:00:52;;;;;;;24.50;17.30;;;13.10;99.90;;;;;;10465404;28;20280;-70
2023/01/01 00:05:53;;;;;;;37.43;27.43;;;13.00;99.90;;;;;;10449236;28;20211;-70
2023/01/01 00:10:53;;;;;;;53.50;41.03;;;12.90;99.90;;;;;;10485978;28;20226;-69
2023/01/01 00:15:54;;;;;;;36.77;26.97;;;12.70;99.90;;;;;;10466286;28;20222;-69
2023/01/01 00:21:02;;;;;;;38.73;26.23;;;12.70;99.90;;;;;;10475108;28;20224;-69
2023/01/01 00:26:12;;;;;;;38.13;27.00;;;12.80;99.90;;;;;;10456657;28;20246;-70
2023/01/01 00:31:16;;;;;;;40.30;29.20;;;12.60;99.90;;;;;;10451136;28;20252;-69
2023/01/01 00:36:17;;;;;;;37.37;29.93;;;12.50;99.90;;;;;;10465003;28;20693;-70
2023/01/01 00:41:18;;;;;;;36.70;30.43;;;12.40;99.90;;;;;;10470640;28;20243;-69
2023/01/01 00:46:19;;;;;;;35.90;28.90;;;12.40;99.90;;;;;;10468589;28;20321;-69
2023/01/01 00:51:20;;;;;;;39.93;30.37;;;12.50;99.90;;;;;;10451972;28;20643;-70
2023/01/01 00:56:20;;;;;;;45.53;33.77;;;12.40;99.90;;;;;;10451106;28;20224;-68
2023/01/01 01:01:21;;;;;;;47.43;38.10;;;12.40;99.90;;;;;;10469436;28;20244;-70
2023/01/01 01:06:21;;;;;;;56.33;41.50;;;12.30;99.90;;;;;;10469805;28;20253;-70
2023/01/01 01:11:24;;;;;;;52.57;40.57;;;12.20;99.90;;;;;;10468969;28;20250;-69
2023/01/01 01:16:31;;;;;;;53.27;40.17;;;12.10;99.90;;;;;;10476145;28;20288;-70
2023/01/01 01:21:33;;;;;;;49.07;39.17;;;12.10;99.90;;;;;;10470210;28;20234;-68
2023/01/01 01:26:35;;;;;;;51.20;39.87;;;12.20;99.90;;;;;;10467322;28;20317;-69
2023/01/01 01:31:36;;;;;;;53.93;38.77;;;12.20;99.90;;;;;;10470566;28;20223;-70
2023/01/01 01:36:38;;;;;;;51.90;39.90;;;12.20;99.90;;;;;;10455025;28;20320;-68
2023/01/01 01:41:38;;;;;;;51.90;38.20;;;12.10;99.90;;;;;;10472042;28;20235;-69
2023/01/01 01:46:43;;;;;;;50.43;39.13;;;12.10;99.90;;;;;;10453022;28;20230;-69
2023/01/01 01:51:45;;;;;;;48.67;37.33;;;12.00;99.90;;;;;;10448437;28;20227;-68
2023/01/01 01:57:01;;;;;;;46.77;35.83;;;11.90;99.90;;;;;;10476041;28;20229;-70
2023/01/01 02:02:02;;;;;;;43.60;33.93;;;11.90;99.90;;;;;;10490726;28;20698;-69
2023/01/01 02:07:03;;;;;;;33.30;26.00;;;11.90;99.90;;;;;;10473658;28;20219;-68
2023/01/01 02:12:04;;;;;;;25.80;20.00;;;11.90;99.90;;;;;;10478546;28;20713;-68
2023/01/01 02:17:29;;;;;;;25.03;15.77;;;12.00;99.90;;;;;;10484303;28;20226;-69
2023/01/01 02:22:35;;;;;;;14.93;11.67;;;12.10;99.90;;;;;;10458775;28;20211;-68
2023/01/01 02:28:00;;;;;;;17.07;9.33;;;12.20;99.90;;;;;;10481142;28;20234;-68
2023/01/01 02:33:06;;;;;;;11.90;8.00;;;12.40;99.90;;;;;;10483893;28;20310;-69
2023/01/01 02:38:29;;;;;;;11.50;6.87;;;12.60;99.90;;;;;;10473377;28;20294;-68
2023/01/01 02:43:29;;;;;;;11.03;7.00;;;12.70;99.90;;;;;;10474073;28;20680;-68
2023/01/01 02:48:48;;;;;;;9.83;6.60;;;12.80;99.90;;;;;;10475800;28;20211;-69
2023/01/01 02:54:24;;;;;;;10.07;7.23;;;12.80;99.90;;;;;;10452773;28;20702;-70
2023/01/01 03:05:05;;;;;;;11.33;8.17;;;12.70;99.90;;;;;;10481207;28;20883;-69
2023/01/01 03:10:31;;;;;;;10.63;7.73;;;12.80;99.90;;;;;;10451810;28;20661;-69
2023/01/01 03:15:56;;;;;;;11.17;8.37;;;12.80;99.90;;;;;;10481647;28;20726;-69
2023/01/01 03:20:59;;;;;;;13.70;8.17;;;12.80;99.90;;;;;;10469852;28;20231;-69
2023/01/01 03:26:05;;;;;;;12.43;8.30;;;12.80;99.90;;;;;;10477713;28;20216;-70
2023/01/01 03:31:06;;;;;;;13.07;8.20;;;12.80;99.90;;;;;;10475429;28;20246;-69
2023/01/01 03:36:14;;;;;;;10.17;8.00;;;12.80;99.90;;;;;;10476136;28;20226;-68
2023/01/01 03:41:27;;;;;;;10.27;7.93;;;12.80;99.90;;;;;;10459371;28;20271;-68
2023/01/01 03:46:32;;;;;;;12.00;8.07;;;12.70;99.90;;;;;;10472679;28;20238;-69
2023/01/01 03:51:42;;;;;;;10.47;7.37;;;12.80;99.90;;;;;;10483029;28;20705;-69
2023/01/01 03:56:52;;;;;;;11.03;7.50;;;12.80;99.90;;;;;;10477761;28;20321;-69
2023/01/01 04:01:57;;;;;;;8.63;7.13;;;12.70;99.90;;;;;;10457723;28;20219;-69
2023/01/01 04:06:57;;;;;;;9.40;6.80;;;12.70;99.90;;;;;;10466954;28;20219;-68
2023/01/01 04:12:02;;;;;;;9.43;6.77;;;12.70;99.90;;;;;;10474560;28;20229;-68
2023/01/01 04:17:04;;;;;;;11.27;6.80;;;12.70;99.90;;;;;;10468237;28;20314;-68
2023/01/01 04:22:05;;;;;;;9.80;6.67;;;12.80;99.90;;;;;;10474936;28;20273;-68
2023/01/01 04:27:07;;;;;;;11.90;7.33;;;12.80;99.90;;;;;;10482058;28;20292;-68
2023/01/01 04:32:08;;;;;;;9.30;7.10;;;12.90;99.90;;;;;;10474406;28;20223;-68
2023/01/01 04:37:08;;;;;;;8.53;6.13;;;12.90;99.90;;;;;;10477041;28;20253;-68
2023/01/01 04:42:09;;;;;;;9.60;6.87;;;12.90;99.90;;;;;;10448098;28;20222;-69
2023/01/01 04:47:09;;;;;;;9.90;7.10;;;12.90;99.90;;;;;;10468372;28;20219;-69
2023/01/01 04:52:10;;;;;;;9.37;6.47;;;12.80;99.90;;;;;;10471530;28;20227;-68
2023/01/01 04:57:11;;;;;;;8.37;6.17;;;12.80;99.90;;;;;;10468288;28;20859;-68
2023/01/01 05:02:11;;;;;;;8.23;6.00;;;12.80;99.90;;;;;;10471497;28;20589;-69
2023/01/01 05:07:12;;;;;;;9.07;6.00;;;12.70;99.90;;;;;;10468460;28;20262;-69
2023/01/01 05:12:13;;;;;;;7.90;5.77;;;12.80;99.90;;;;;;10474767;28;20679;-69
2023/01/01 05:17:13;;;;;;;10.67;6.20;;;12.80;99.90;;;;;;10477335;28;20691;-69
2023/01/01 05:22:14;;;;;;;9.70;5.73;;;12.80;99.90;;;;;;10468698;28;20219;-69
2023/01/01 05:27:14;;;;;;;7.53;5.50;;;12.90;99.90;;;;;;10449312;28;20296;-68
2023/01/01 05:32:15;;;;;;;8.47;5.70;;;12.90;99.90;;;;;;10477310;28;20214;-69
2023/01/01 05:37:15;;;;;;;9.53;5.60;;;12.80;99.90;;;;;;10477894;28;20219;-69
2023/01/01 05:42:17;;;;;;;9.03;5.10;;;12.80;99.90;;;;;;10480709;28;20661;-68
2023/01/01 05:47:20;;;;;;;10.00;5.50;;;12.80;99.90;;;;;;10480114;28;20236;-69
2023/01/01 05:52:20;;;;;;;10.47;5.53;;;12.80;99.90;;;;;;10475738;28;20310;-69
2023/01/01 05:57:21;;;;;;;8.40;5.27;;;12.70;99.90;;;;;;10487288;28;20215;-70
2023/01/01 06:02:22;;;;;;;6.80;4.73;;;12.70;99.90;;;;;;10475507;28;20677;-70
2023/01/01 06:07:22;;;;;;;8.60;4.83;;;12.70;99.90;;;;;;10457727;28;20232;-70
2023/01/01 06:12:23;;;;;;;6.73;4.70;;;12.70;99.90;;;;;;10478423;28;20227;-69
2023/01/01 06:17:23;;;;;;;6.77;4.77;;;12.70;99.90;;;;;;10457283;28;20230;-69
2023/01/01 06:22:24;;;;;;;6.87;4.90;;;12.80;99.90;;;;;;10482944;28;20221;-69
2023/01/01 06:27:24;;;;;;;7.87;4.30;;;12.80;99.90;;;;;;10483373;28;20606;-69
2023/01/01 06:32:25;;;;;;;5.33;4.03;;;12.80;99.90;;;;;;10469628;28;20297;-69
2023/01/01 06:37:27;;;;;;;6.17;3.90;;;12.90;99.90;;;;;;10482016;28;20335;-69
2023/01/01 06:42:27;;;;;;;8.47;3.97;;;12.90;99.90;;;;;;10465651;28;20302;-68
2023/01/01 06:47:28;;;;;;;9.83;4.10;;;12.80;99.90;;;;;;10456141;28;20666;-68
2023/01/01 06:52:28;;;;;;;6.43;3.77;;;12.80;99.90;;;;;;10474605;28;20317;-68
2023/01/01 06:57:29;;;;;;;6.40;3.97;;;12.80;99.90;;;;;;10455263;28;20230;-68
2023/01/01 07:02:29;;;;;;;4.87;3.47;;;12.70;99.90;;;;;;10477886;28;20265;-69
2023/01/01 07:07:31;;;;;;;7.67;4.03;;;12.70;99.90;;;;;;10485053;28;20792;-68
2023/01/01 07:12:32;;;;;;;6.97;3.37;;;12.70;99.90;;;;;;10480244;28;20225;-68
2023/01/01 07:17:32;;;;;;;4.83;3.50;;;12.60;99.90;;;;;;10486927;28;20614;-69
2023/01/01 07:22:34;;;;;;;5.27;3.67;;;12.60;99.90;;;;;;10473735;28;20222;-69
2023/01/01 07:27:35;;;;;;;6.93;3.43;;;12.60;99.90;;;;;;10470424;28;20333;-69
2023/01/01 07:32:36;;;;;;;5.37;3.30;;;12.60;99.90;;;;;;10455909;28;20617;-69
2023/01/01 07:37:37;;;;;;;6.57;3.40;;;12.70;99.90;;;;;;10480349;28;20314;-69
2023/01/01 07:42:38;;;;;;;6.37;3.30;;;12.80;99.90;;;;;;10466355;28;20964;-69
2023/01/01 07:47:38;;;;;;;7.43;3.07;;;12.80;99.90;;;;;;10455830;28;20646;-69
2023/01/01 07:52:39;;;;;;;5.90;3.33;;;12.90;99.90;;;;;;10468717;28;20247;-70
2023/01/01 07:57:40;;;;;;;7.73;3.07;;;13.00;99.90;;;;;;10460271;28;20246;-69
2023/01/01 08:02:41;;;;;;;6.23;2.90;;;13.10;99.90;;;;;;10473609;28;20230;-69
2023/01/01 08:08:06;;;;;;;4.67;2.70;;;13.20;99.90;;;;;;10468536;28;20228;-68
2023/01/01 08:13:07;;;;;;;4.90;3.20;;;13.40;99.90;;;;;;10468163;28;20237;-69
2023/01/01 08:18:08;;;;;;;7.63;3.23;;;13.60;99.90;;;;;;10474809;28;20616;-68
2023/01/01 08:23:09;;;;;;;7.53;3.13;;;13.70;99.90;;;;;;10486374;28;20313;-70
2023/01/01 08:28:09;;;;;;;9.00;3.33;;;13.80;99.90;;;;;;10472646;28;20357;-69
2023/01/01 08:33:10;;;;;;;7.37;3.10;;;13.90;99.90;;;;;;10468587;28;20215;-68
2023/01/01 08:38:11;;;;;;;9.57;3.07;;;14.00;99.90;;;;;;10471504;28;20230;-69
2023/01/01 08:43:12;;;;;;;8.17;3.30;;;14.10;99.90;;;;;;10473081;28;20223;-69
2023/01/01 08:48:12;;;;;;;9.70;2.80;;;14.20;99.90;;;;;;10449970;28;20219;-68
2023/01/01 08:53:13;;;;;;;8.50;3.10;;;14.30;99.90;;;;;;10470361;28;21227;-68
2023/01/01 08:58:13;;;;;;;5.07;2.80;;;14.60;99.90;;;;;;10449415;28;20698;-69
2023/01/01 09:03:14;;;;;;;7.07;2.90;;;14.90;99.90;;;;;;10470146;28;20223;-69
2023/01/01 09:08:15;;;;;;;11.10;3.40;;;15.20;99.90;;;;;;10466573;28;20306;-70
2023/01/01 09:13:18;;;;;;;5.07;2.50;;;15.70;99.90;;;;;;10451942;28;20227;-68
2023/01/01 09:18:18;;;;;;;5.30;2.67;;;16.20;99.90;;;;;;10467944;28;20262;-69
2023/01/01 09:23:20;;;;;;;6.63;2.57;;;16.50;99.90;;;;;;10467426;28;20211;-69
2023/01/01 09:28:21;;;;;;;4.33;2.60;;;16.90;99.90;;;;;;10472494;28;20338;-69
2023/01/01 09:33:21;;;;;;;8.67;2.90;;;16.90;99.90;;;;;;10472059;28;20386;-70
2023/01/01 09:38:22;;;;;;;5.13;2.60;;;17.40;99.90;;;;;;10471575;28;20251;-69
2023/01/01 09:43:49;;;;;;;4.63;2.60;;;17.60;99.90;;;;;;10472035;28;20219;-69
2023/01/01 09:49:09;;;;;;;5.93;2.97;;;17.40;99.90;;;;;;10443921;28;20248;-68
2023/01/01 09:54:23;;;;;;;7.20;2.77;;;17.20;99.90;;;;;;10463855;28;20224;-69
2023/01/01 09:59:24;;;;;;;4.90;2.50;;;17.20;99.90;;;;;;10468161;28;20225;-69
2023/01/01 10:04:39;;;;;;;5.10;2.80;;;17.50;99.90;;;;;;10478156;28;20349;-69
2023/01/01 10:10:05;;;;;;;6.30;2.60;;;17.90;99.90;;;;;;10470178;28;20222;-69
2023/01/01 10:15:21;;;;;;;8.13;2.80;;;18.50;99.90;;;;;;10472995;28;20242;-69
2023/01/01 10:20:30;;;;;;;6.03;2.27;;;18.80;99.90;;;;;;10479097;28;20279;-69
2023/01/01 10:25:32;;;;;;;7.40;2.47;;;18.60;99.90;;;;;;10489663;28;20223;-69
2023/01/01 10:30:33;;;;;;;6.67;2.60;;;18.80;99.90;;;;;;10473324;28;20216;-70
2023/01/01 10:35:38;;;;;;;6.53;2.40;;;19.40;99.90;;;;;;10475860;28;20205;-69
2023/01/01 10:40:39;;;;;;;7.90;2.50;;;19.30;99.90;;;;;;10471949;28;20229;-69
2023/01/01 10:45:44;;;;;;;7.27;2.43;;;18.90;99.90;;;;;;10476201;28;20220;-69
2023/01/01 10:50:49;;;;;;;5.63;2.50;;;18.70;99.90;;;;;;10476430;28;20221;-69
2023/01/01 10:55:57;;;;;;;3.60;1.93;;;18.40;99.90;;;;;;10477717;28;20294;-69
2023/01/01 11:00:59;;;;;;;9.37;2.87;;;18.10;99.90;;;;;;10469348;28;20604;-69
2023/01/01 11:06:19;;;;;;;4.60;2.57;;;17.70;99.90;;;;;;10458917;28;20230;-69
2023/01/01 11:11:40;;;;;;;5.63;2.83;;;17.40;99.90;;;;;;10462636;28;20222;-69
2023/01/01 11:16:45;;;;;;;4.93;2.60;;;17.80;99.90;;;;;;10470893;28;20227;-69
2023/01/01 11:21:46;;;;;;;6.33;2.27;;;20.40;99.90;;;;;;10483944;28;20232;-69
2023/01/01 11:26:48;;;;;;;6.60;2.60;;;21.30;99.90;;;;;;10477404;28;20316;-69
2023/01/01 11:31:48;;;;;;;7.03;2.60;;;20.00;99.90;;;;;;10475097;28;20237;-70
2023/01/01 11:36:50;;;;;;;7.63;2.97;;;18.90;99.90;;;;;;10477948;28;20221;-70
2023/01/01 11:41:53;;;;;;;9.57;3.10;;;18.10;99.90;;;;;;10451579;28;20224;-70
2023/01/01 11:46:53;;;;;;;9.43;2.90;;;17.50;99.90;;;;;;10477159;28;20252;-70
2023/01/01 11:51:57;;;;;;;8.23;2.83;;;17.10;99.90;;;;;;10458730;28;20246;-70
2023/01/01 11:57:22;;;;;;;8.57;2.70;;;16.70;99.90;;;;;;10468811;28;20728;-68
2023/01/01 12:02:35;;;;;;;7.77;2.37;;;16.50;99.90;;;;;;10475690;28;20233;-69
2023/01/01 12:07:39;;;;;;;8.33;2.63;;;16.40;99.90;;;;;;10476295;28;20212;-68
2023/01/01 12:12:46;;;;;;;10.13;2.50;;;16.40;99.90;;;;;;10478356;28;20211;-69
2023/01/01 12:17:57;;;;;;;11.83;2.60;;;16.40;99.90;;;;;;10473851;28;20227;-69
2023/01/01 12:22:58;;;;;;;10.23;2.30;;;16.40;99.90;;;;;;10464345;28;20220;-69
2023/01/01 12:28:32;;;;;;;8.03;2.47;;;16.20;99.90;;;;;;10474547;28;20296;-70
2023/01/01 12:33:56;;;;;;;8.67;2.87;;;16.10;99.90;;;;;;10468777;28;20330;-69
2023/01/01 12:39:18;;;;;;;7.33;2.50;;;15.90;99.90;;;;;;10466945;28;20242;-70
2023/01/01 12:44:24;;;;;;;4.93;2.70;;;15.80;99.90;;;;;;10470684;28;20718;-69
2023/01/01 12:49:51;;;;;;;6.27;2.23;;;15.70;99.90;;;;;;10452404;28;20219;-70
2023/01/01 12:55:10;;;;;;;6.57;2.50;;;15.70;99.90;;;;;;10456699;28;20219;-69
2023/01/01 13:00:16;;;;;;;8.90;2.70;;;15.80;99.90;;;;;;10466412;28;20304;-69
2023/01/01 13:05:25;;;;;;;10.80;2.93;;;15.80;99.90;;;;;;10462108;28;20207;-69
2023/01/01 13:10:42;;;;;;;6.00;2.50;;;15.80;99.90;;;;;;10465077;28;20217;-69
2023/01/01 13:15:44;;;;;;;7.33;2.73;;;15.80;99.90;;;;;;10473461;28;20219;-69
2023/01/01 13:20:53;;;;;;;9.40;2.57;;;15.70;99.90;;;;;;10478104;28;20220;-69
2023/01/01 13:26:23;;;;;;;10.30;2.80;;;15.70;99.90;;;;;;10474166;28;20336;-69
2023/01/01 13:31:39;;;;;;;7.40;2.60;;;15.50;99.90;;;;;;10469462;28;20218;-70
2023/01/01 13:36:46;;;;;;;5.53;2.50;;;15.40;99.90;;;;;;10467800;28;20219;-70
2023/01/01 13:41:46;;;;;;;5.73;2.60;;;15.30;99.90;;;;;;10454030;28;20334;-69
2023/01/01 13:47:18;;;;;;;7.83;3.23;;;15.30;99.90;;;;;;10481115;28;20309;-70
2023/01/01 13:52:37;;;;;;;9.60;3.33;;;15.30;99.90;;;;;;10470775;28;20227;-70
2023/01/01 13:57:57;;;;;;;10.17;2.73;;;15.10;99.90;;;;;;10462836;28;20901;-69
2023/01/01 14:03:01;;;;;;;7.83;2.77;;;15.10;99.90;;;;;;10480285;28;20298;-69
2023/01/01 14:08:02;;;;;;;12.23;3.10;;;14.90;99.90;;;;;;10469764;28;20215;-69
2023/01/01 14:13:06;;;;;;;8.93;3.87;;;14.90;99.90;;;;;;10472170;28;20227;-69
2023/01/01 14:18:15;;;;;;;5.27;2.70;;;14.90;99.90;;;;;;10494261;28;20640;-69
2023/01/01 14:23:30;;;;;;;10.03;3.43;;;14.80;99.90;;;;;;10470649;28;20306;-69
2023/01/01 14:28:33;;;;;;;6.23;3.17;;;14.80;99.90;;;;;;10476102;28;20257;-70
2023/01/01 14:33:33;;;;;;;8.33;2.93;;;14.90;99.90;;;;;;10473173;28;20274;-70
2023/01/01 14:38:41;;;;;;;6.13;3.23;;;14.80;99.90;;;;;;10457799;28;20247;-69
2023/01/01 14:43:44;;;;;;;3.43;2.63;;;14.70;99.90;;;;;;10453943;28;20226;-70
2023/01/01 14:48:50;;;;;;;8.60;3.07;;;14.70;99.90;;;;;;10470398;28;20307;-70
2023/01/01 14:53:54;;;;;;;11.97;3.50;;;14.60;99.90;;;;;;10459280;28;20231;-70
2023/01/01 14:59:17;;;;;;;7.23;2.93;;;14.60;99.90;;;;;;10468508;28;20646;-69
2023/01/01 15:04:22;;;;;;;5.80;3.33;;;14.50;99.90;;;;;;10456959;28;20586;-70
2023/01/01 15:09:24;;;;;;;7.47;2.83;;;14.40;99.90;;;;;;10473525;28;20231;-69
2023/01/01 15:14:38;;;;;;;7.37;3.10;;;14.30;99.90;;;;;;10473377;28;20219;-70
2023/01/01 15:19:41;;;;;;;5.13;2.93;;;14.20;99.90;;;;;;10480635;28;20778;-69
2023/01/01 15:24:44;;;;;;;6.73;2.93;;;14.10;99.90;;;;;;10501225;28;20221;-69
2023/01/01 15:29:49;;;;;;;8.27;3.10;;;13.90;99.90;;;;;;10467980;28;20746;-69
2023/01/01 15:35:01;;;;;;;5.73;2.83;;;13.90;99.90;;;;;;10468730;28;20659;-69
2023/01/01 15:40:22;;;;;;;6.27;3.10;;;13.60;99.90;;;;;;10465282;28;20238;-70
2023/01/01 15:45:30;;;;;;;6.70;2.67;;;13.50;99.90;;;;;;10472443;28;20269;-69
2023/01/01 15:50:43;;;;;;;9.10;3.40;;;13.40;99.90;;;;;;10472317;28;20289;-68
2023/01/01 15:55:52;;;;;;;7.17;3.30;;;13.40;99.90;;;;;;10465873;28;20219;-69
2023/01/01 16:01:18;;;;;;;5.63;3.10;;;13.30;99.90;;;;;;10472754;28;20296;-69
2023/01/01 16:06:20;;;;;;;5.77;3.17;;;13.30;99.90;;;;;;10470634;28;20564;-69
2023/01/01 16:11:21;;;;;;;5.60;3.40;;;13.30;99.90;;;;;;10471179;28;20224;-68
2023/01/01 16:16:28;;;;;;;9.53;5.43;;;13.30;99.90;;;;;;10469958;28;20253;-69
2023/01/01 16:21:33;;;;;;;8.30;4.73;;;13.30;99.90;;;;;;10469850;28;20234;-69
2023/01/01 16:26:34;;;;;;;18.00;5.83;;;13.30;99.90;;;;;;10486901;28;20276;-68
2023/01/01 16:31:38;;;;;;;10.87;4.90;;;13.30;99.90;;;;;;10451620;28;20279;-69
2023/01/01 16:36:39;;;;;;;9.07;4.97;;;13.20;99.90;;;;;;10472441;28;20237;-68
2023/01/01 16:41:41;;;;;;;10.60;4.23;;;13.20;99.90;;;;;;10450047;28;20230;-68
2023/01/01 16:46:42;;;;;;;7.30;4.10;;;13.30;99.90;;;;;;10471810;28;20230;-69
2023/01/01 16:51:42;;;;;;;8.13;4.33;;;13.20;99.90;;;;;;10449065;28;20257;-69
2023/01/01 16:56:43;;;;;;;13.30;4.80;;;13.20;99.90;;;;;;10471945;28;20214;-68
2023/01/01 17:01:44;;;;;;;35.43;16.70;;;13.20;99.90;;;;;;10478673;28;20215;-69
2023/01/01 17:06:44;;;;;;;13.07;8.00;;;13.20;99.90;;;;;;10466097;28;20222;-69
2023/01/01 17:11:45;;;;;;;13.73;10.90;;;13.10;99.90;;;;;;10466893;28;20229;-68
2023/01/01 17:16:45;;;;;;;12.10;8.50;;;13.20;99.90;;;;;;10477211;28;20309;-69
2023/01/01 17:21:47;;;;;;;10.10;7.33;;;13.20;99.90;;;;;;10464277;28;20235;-69
2023/01/01 17:26:53;;;;;;;12.40;6.97;;;13.10;99.90;;;;;;10471001;28;20222;-70
2023/01/01 17:31:54;;;;;;;10.87;7.10;;;13.10;99.90;;;;;;10469417;28;20359;-70
2023/01/01 17:36:54;;;;;;;16.27;8.77;;;13.10;99.90;;;;;;10472405;28;20221;-69
2023/01/01 17:41:56;;;;;;;16.67;10.47;;;13.20;99.90;;;;;;10464026;28;20637;-69
2023/01/01 17:46:57;;;;;;;13.53;9.10;;;13.20;99.90;;;;;;10446564;28;20223;-69
2023/01/01 17:51:57;;;;;;;12.00;7.90;;;13.10;99.90;;;;;;10471660;28;20716;-69
2023/01/01 17:57:02;;;;;;;11.10;7.70;;;13.20;99.90;;;;;;10464421;28;20224;-70
2023/01/01 18:02:04;;;;;;;11.90;7.63;;;13.20;99.90;;;;;;10466439;28;20677;-70
2023/01/01 18:07:05;;;;;;;14.20;8.90;;;13.10;99.90;;;;;;10470944;28;20227;-68
2023/01/01 18:12:06;;;;;;;17.47;10.60;;;13.10;99.90;;;;;;10465051;28;20243;-69
2023/01/01 18:17:06;;;;;;;15.97;10.10;;;13.10;99.90;;;;;;10470603;28;20218;-70
2023/01/01 18:22:07;;;;;;;18.47;10.53;;;13.10;99.90;;;;;;10465292;28;20243;-70
2023/01/01 18:27:07;;;;;;;17.07;9.90;;;13.10;99.90;;;;;;10482723;28;20252;-69
2023/01/01 18:32:08;;;;;;;13.57;8.17;;;13.00;99.90;;;;;;10453766;28;20294;-70
2023/01/01 18:37:09;;;;;;;11.97;9.10;;;13.00;99.90;;;;;;10470978;28;20215;-69
2023/01/01 18:42:18;;;;;;;17.20;8.90;;;13.00;99.90;;;;;;10472434;28;20242;-70
2023/01/01 18:47:19;;;;;;;14.20;7.70;;;13.00;99.90;;;;;;10475188;28;20223;-70
2023/01/01 18:52:23;;;;;;;12.63;5.80;;;12.90;99.90;;;;;;10473394;28;20234;-69
2023/01/01 18:57:24;;;;;;;9.17;4.60;;;12.90;99.90;;;;;;10464291;28;20746;-68
2023/01/01 19:02:47;;;;;;;11.50;5.00;;;12.80;99.90;;;;;;10473224;28;20227;-68
2023/01/01 19:08:07;;;;;;;7.60;4.07;;;12.80;99.90;;;;;;10463712;28;20227;-69
2023/01/01 19:13:26;;;;;;;8.57;3.97;;;12.80;99.90;;;;;;10480096;28;20241;-68
2023/01/01 19:18:33;;;;;;;10.33;4.80;;;12.70;99.90;;;;;;10462993;28;20226;-68
2023/01/01 19:23:37;;;;;;;8.77;4.90;;;12.50;99.90;;;;;;10471493;28;20220;-70
2023/01/01 19:28:42;;;;;;;10.53;5.97;;;12.50;99.90;;;;;;10473735;28;20286;-69
2023/01/01 19:33:43;;;;;;;10.73;6.43;;;12.50;99.90;;;;;;10474239;28;20282;-69
2023/01/01 19:38:43;;;;;;;11.70;5.97;;;12.40;99.90;;;;;;10473546;28;20729;-69
2023/01/01 19:43:44;;;;;;;12.10;7.10;;;12.40;99.90;;;;;;10469700;28;20230;-69
2023/01/01 19:48:44;;;;;;;10.23;6.80;;;12.20;99.90;;;;;;10474244;28;20230;-69
2023/01/01 19:53:45;;;;;;;11.43;6.83;;;12.10;99.90;;;;;;10451263;28;20293;-70
2023/01/01 19:58:46;;;;;;;14.50;8.47;;;11.90;99.90;;;;;;10474563;28;20223;-68
2023/01/01 20:03:47;;;;;;;14.17;8.00;;;11.90;99.90;;;;;;10450429;28;20594;-69
2023/01/01 20:08:47;;;;;;;14.37;7.83;;;11.90;99.90;;;;;;10499631;28;20230;-69
2023/01/01 20:13:48;;;;;;;12.53;8.30;;;11.90;99.90;;;;;;10467581;28;20709;-68
2023/01/01 20:18:49;;;;;;;11.77;8.63;;;12.00;99.90;;;;;;10473553;28;20277;-69
2023/01/01 20:23:51;;;;;;;13.43;8.93;;;12.00;99.90;;;;;;10466889;28;20633;-70
2023/01/01 20:34:11;;;;;;;11.07;7.50;;;12.10;99.90;;;;;;10468131;28;20222;-70
2023/01/01 20:39:12;;;;;;;11.03;6.90;;;12.10;99.90;;;;;;10471495;28;20679;-70
2023/01/01 20:44:12;;;;;;;10.63;6.17;;;12.00;99.90;;;;;;10467696;28;20613;-70
2023/01/01 20:49:15;;;;;;;9.97;5.83;;;12.00;99.90;;;;;;10469885;28;20223;-69
2023/01/01 20:54:17;;;;;;;11.47;6.53;;;12.00;99.90;;;;;;10467751;28;20817;-70
2023/01/01 20:59:18;;;;;;;11.70;5.87;;;12.00;99.90;;;;;;10469948;28;21008;-70
2023/01/01 21:04:18;;;;;;;11.57;6.33;;;12.10;99.90;;;;;;10471150;28;20257;-69
2023/01/01 21:09:19;;;;;;;10.73;5.40;;;12.20;99.90;;;;;;10481907;28;20221;-69
2023/01/01 21:14:24;;;;;;;11.00;5.40;;;12.30;99.90;;;;;;10469795;28;20216;-69
2023/01/01 21:19:24;;;;;;;10.33;4.60;;;12.40;99.90;;;;;;10475231;28;20219;-68
2023/01/01 21:24:35;;;;;;;9.20;4.00;;;12.50;99.90;;;;;;10459299;28;20211;-69
2023/01/01 21:29:44;;;;;;;6.47;3.50;;;12.60;99.90;;;;;;10472688;28;20250;-68
2023/01/01 21:34:47;;;;;;;7.10;3.70;;;12.70;99.90;;;;;;10466311;28;20226;-70
2023/01/01 21:39:48;;;;;;;7.97;3.73;;;12.70;99.90;;;;;;10464624;28;20670;-68
2023/01/01 21:44:55;;;;;;;12.90;3.60;;;12.80;99.90;;;;;;10471519;28;20306;-69
2023/01/01 21:49:56;;;;;;;7.37;3.20;;;12.90;99.90;;;;;;10462802;28;20219;-68
2023/01/01 21:54:56;;;;;;;6.10;3.87;;;13.00;99.90;;;;;;10463881;28;20228;-68
2023/01/01 21:59:57;;;;;;;4.97;3.03;;;13.10;99.90;;;;;;10456168;28;20237;-69
2023/01/01 22:05:00;;;;;;;8.83;3.20;;;13.20;99.90;;;;;;10463953;28;20269;-69
2023/01/01 22:10:13;;;;;;;9.03;3.40;;;13.40;99.90;;;;;;10471191;28;20219;-69
2023/01/01 22:15:35;;;;;;;9.73;2.80;;;13.50;99.90;;;;;;10480354;28;20298;-70
2023/01/01 22:20:37;;;;;;;5.80;2.90;;;13.70;99.90;;;;;;10452791;28;20226;-69
2023/01/01 22:25:37;;;;;;;5.70;2.97;;;13.80;99.90;;;;;;10477361;28;20706;-70
2023/01/01 22:30:40;;;;;;;5.17;2.90;;;14.00;99.90;;;;;;10482111;28;20226;-70
2023/01/01 22:35:41;;;;;;;5.57;3.33;;;14.00;99.90;;;;;;10473371;28;20215;-69
2023/01/01 22:40:42;;;;;;;6.83;3.20;;;14.10;99.90;;;;;;10478934;28;20714;-71
2023/01/01 22:45:45;;;;;;;6.43;2.77;;;14.10;99.90;;;;;;10477531;28;20223;-69
2023/01/01 22:50:47;;;;;;;7.87;3.40;;;14.20;99.90;;;;;;10472276;28;20224;-69
2023/01/01 22:55:47;;;;;;;7.20;2.50;;;14.20;99.90;;;;;;10459785;28;20223;-68
2023/01/01 23:00:48;;;;;;;5.63;2.60;;;14.30;99.90;;;;;;10471322;28;20330;-69
2023/01/01 23:05:48;;;;;;;4.37;2.70;;;14.40;99.90;;;;;;10477118;28;20301;-69
2023/01/01 23:10:49;;;;;;;5.73;2.37;;;14.40;99.90;;;;;;10470355;28;20602;-69
2023/01/01 23:16:01;;;;;;;5.93;2.83;;;14.40;99.90;;;;;;10482445;28;20219;-70
2023/01/01 23:21:07;;;;;;;7.60;2.77;;;14.40;99.90;;;;;;10465689;28;20958;-70
2023/01/01 23:26:08;;;;;;;7.90;2.80;;;14.30;99.90;;;;;;10469632;28;20242;-70
2023/01/01 23:31:11;;;;;;;9.23;3.10;;;14.30;99.90;;;;;;10474948;28;20238;-69
2023/01/01 23:36:12;;;;;;;5.37;2.60;;;14.20;99.90;;;;;;10452858;28;20259;-69
2023/01/01 23:41:13;;;;;;;8.17;2.83;;;14.20;99.90;;;;;;10474095;28;20304;-69
2023/01/01 23:46:14;;;;;;;6.73;2.97;;;14.10;99.90;;;;;;10470444;28;20224;-68
2023/01/01 23:51:15;;;;;;;9.27;2.97;;;14.10;99.90;;;;;;10478625;28;20231;-70
2023/01/01 23:56:16;;;;;;;10.33;2.80;;;14.10;99.90;;;;;;10455055;28;20663;-69
